Time;durP1;ratioP1;P1;durP2;ratioP2;P2;SDS_P1;SDS_P2;PMS_P1;PMS_P2;Temp;Humidity;BMP_temperature;BMP_pressure;BME280_temperature;BME280_humidity;BME280_pressure;Samples;Min_cycle;Max_cycle;Signal;HPM_P1;HPM_P2
2021/03/03 00:01:59;;;;;;;8.47;6.20;;;19.80;45.90;;;;;;5096062;27;20484;-73
2021/03/03 00:04:26;;;;;;;5.80;5.13;;;19.80;45.90;;;;;;5074691;28;20908;-73
2021/03/03 00:06:52;;;;;;;5.30;4.80;;;19.90;46.00;;;;;;5075553;28;20862;-71
2021/03/03 00:09:18;;;;;;;7.00;5.23;;;19.80;45.80;;;;;;5088955;27;20475;-72
2021/03/03 00:11:45;;;;;;;5.43;4.90;;;19.80;46.60;;;;;;5086669;27;20492;-73
2021/03/03 00:14:11;;;;;;;5.90;5.30;;;19.80;45.80;;;;;;5077470;28;20518;-73
2021/03/03 00:16:38;;;;;;;6.87;5.43;;;19.80;45.80;;;;;;5073500;28;20480;-72
2021/03/03 00:19:04;;;;;;;7.60;6.77;;;19.80;45.80;;;;;;5067174;28;20940;-73
2021/03/03 00:21:30;;;;;;;6.23;5.73;;;19.80;45.80;;;;;;5071061;28;20500;-72
2021/03/03 00:23:56;;;;;;;6.93;6.20;;;19.70;45.70;;;;;;5068322;27;20544;-73
2021/03/03 00:26:23;;;;;;;6.60;5.93;;;19.80;45.70;;;;;;5089714;28;20886;-73
2021/03/03 00:28:50;;;;;;;8.40;6.43;;;19.80;45.70;;;;;;5074514;28;20468;-73
2021/03/03 00:31:16;;;;;;;7.13;6.00;;;19.80;45.60;;;;;;5075297;28;20485;-73
2021/03/03 00:33:42;;;;;;;6.47;5.00;;;19.80;45.50;;;;;;5071080;28;20491;-73
2021/03/03 00:36:08;;;;;;;7.63;6.70;;;19.80;45.50;;;;;;5091139;28;20489;-73
2021/03/03 00:38:34;;;;;;;6.27;5.67;;;19.80;45.50;;;;;;5082101;28;20488;-71
2021/03/03 00:41:01;;;;;;;7.20;6.50;;;19.80;45.60;;;;;;5072618;27;21066;-72
2021/03/03 00:43:27;;;;;;;7.63;6.40;;;19.70;45.50;;;;;;5091067;27;20485;-74
2021/03/03 00:45:54;;;;;;;10.00;6.50;;;19.80;45.50;;;;;;5072639;28;20488;-72
2021/03/03 00:48:20;;;;;;;6.57;6.07;;;19.80;45.40;;;;;;5083990;28;20476;-73
2021/03/03 00:50:46;;;;;;;7.20;6.20;;;19.70;45.30;;;;;;5077506;28;20484;-73
2021/03/03 00:53:13;;;;;;;9.77;6.33;;;19.70;45.30;;;;;;5077508;28;20504;-73
2021/03/03 00:55:39;;;;;;;8.80;6.70;;;19.70;45.30;;;;;;5065976;28;20486;-74
2021/03/03 00:58:06;;;;;;;9.60;5.90;;;19.70;45.30;;;;;;5067107;27;21882;-74
2021/03/03 01:00:32;;;;;;;10.50;6.90;;;19.70;45.30;;;;;;5103370;27;20522;-73
2021/03/03 01:02:59;;;;;;;7.47;6.20;;;19.70;45.20;;;;;;5065568;27;20488;-73
2021/03/03 01:05:26;;;;;;;10.97;6.90;;;19.70;45.20;;;;;;5075928;28;20480;-73
2021/03/03 01:07:52;;;;;;;8.80;6.50;;;19.70;45.20;;;;;;5065694;28;20526;-73
2021/03/03 01:10:18;;;;;;;9.93;6.80;;;19.70;45.20;;;;;;5099305;27;22179;-73
2021/03/03 01:12:44;;;;;;;9.67;6.60;;;19.70;45.10;;;;;;5076355;28;20473;-73
2021/03/03 01:15:12;;;;;;;9.83;6.10;;;19.70;45.10;;;;;;5073763;28;20487;-73
2021/03/03 01:17:38;;;;;;;8.70;6.40;;;19.70;45.10;;;;;;5074498;28;20492;-73
2021/03/03 01:20:06;;;;;;;8.13;6.73;;;19.70;45.10;;;;;;5076685;28;20485;-72
2021/03/03 01:22:33;;;;;;;6.80;6.03;;;19.70;45.10;;;;;;5077613;28;20473;-72
2021/03/03 01:24:59;;;;;;;6.77;6.07;;;19.70;45.00;;;;;;5074066;28;20488;-73
2021/03/03 01:27:25;;;;;;;6.17;5.27;;;19.70;44.80;;;;;;5076291;28;20559;-74
2021/03/03 01:29:51;;;;;;;7.77;5.80;;;19.80;44.80;;;;;;5074537;28;20890;-73
2021/03/03 01:32:17;;;;;;;8.43;6.00;;;19.80;44.80;;;;;;5075576;28;20530;-72
2021/03/03 01:34:43;;;;;;;8.60;6.53;;;19.80;44.60;;;;;;5077976;28;20508;-72
2021/03/03 01:37:11;;;;;;;7.03;5.40;;;19.80;44.60;;;;;;5076506;28;21636;-73
2021/03/03 01:39:37;;;;;;;6.50;5.83;;;19.80;44.40;;;;;;5075885;28;20491;-72
2021/03/03 01:42:03;;;;;;;10.63;5.87;;;19.80;44.40;;;;;;5076093;28;20514;-73
2021/03/03 01:44:29;;;;;;;7.40;6.37;;;19.80;44.40;;;;;;5073275;28;21208;-74
2021/03/03 01:46:56;;;;;;;9.77;5.60;;;19.80;44.50;;;;;;5075976;28;20497;-73
2021/03/03 01:49:22;;;;;;;6.10;5.50;;;19.80;44.50;;;;;;5077487;28;20496;-73
2021/03/03 01:51:48;;;;;;;5.83;5.00;;;19.80;44.50;;;;;;5073001;28;21046;-73
2021/03/03 01:54:15;;;;;;;6.23;5.57;;;19.80;44.50;;;;;;5074475;28;20484;-74
2021/03/03 01:56:41;;;;;;;5.87;5.47;;;19.70;44.40;;;;;;5074896;28;20488;-72
2021/03/03 01:59:07;;;;;;;6.37;5.77;;;19.80;44.60;;;;;;5077722;28;20485;-73
2021/03/03 02:01:34;;;;;;;7.40;6.27;;;19.70;44.50;;;;;;5072369;28;20485;-73
2021/03/03 02:04:00;;;;;;;7.70;5.57;;;19.70;44.40;;;;;;5077143;28;20489;-73
2021/03/03 02:06:28;;;;;;;7.00;5.67;;;19.70;44.50;;;;;;5076333;28;20480;-74
2021/03/03 02:08:59;;;;;;;7.90;6.43;;;19.70;44.40;;;;;;5064790;28;20504;-73
2021/03/03 02:11:31;;;;;;;8.00;5.90;;;19.70;44.40;;;;;;5063006;28;20553;-73
2021/03/03 02:13:59;;;;;;;6.23;5.13;;;19.70;44.30;;;;;;5064851;28;20475;-74
2021/03/03 02:16:25;;;;;;;6.07;5.47;;;19.70;44.20;;;;;;5076240;28;20484;-73
2021/03/03 02:18:51;;;;;;;6.70;5.53;;;19.70;44.20;;;;;;5076487;28;20481;-73
2021/03/03 02:21:19;;;;;;;6.23;5.60;;;19.70;44.10;;;;;;5073982;28;20497;-72
2021/03/03 02:23:48;;;;;;;5.80;5.30;;;19.70;44.10;;;;;;5075665;28;20516;-72
2021/03/03 02:26:15;;;;;;;5.20;4.80;;;19.70;44.20;;;;;;5077305;28;20488;-73
2021/03/03 02:28:42;;;;;;;11.00;6.03;;;19.70;44.20;;;;;;5075666;28;20489;-72
2021/03/03 02:31:08;;;;;;;5.47;5.03;;;19.70;44.20;;;;;;5076280;28;20522;-73
2021/03/03 02:33:34;;;;;;;6.13;5.30;;;19.70;44.20;;;;;;5072380;28;20500;-72
2021/03/03 02:36:01;;;;;;;5.70;5.20;;;19.70;44.20;;;;;;5070114;28;20625;-73
2021/03/03 02:38:27;;;;;;;6.47;5.47;;;19.70;44.90;;;;;;5063737;28;20501;-73
2021/03/03 02:40:53;;;;;;;6.33;5.47;;;19.70;44.10;;;;;;5101262;28;20489;-73
2021/03/03 02:43:20;;;;;;;5.33;4.93;;;19.60;44.00;;;;;;5075398;28;20487;-73
2021/03/03 02:45:47;;;;;;;4.83;4.53;;;19.60;44.00;;;;;;5071060;28;20476;-73
2021/03/03 02:48:13;;;;;;;7.43;5.70;;;19.60;44.00;;;;;;5079776;27;20908;-73
2021/03/03 02:50:40;;;;;;;5.33;4.90;;;19.60;43.80;;;;;;5096176;27;21312;-72
2021/03/03 02:53:06;;;;;;;5.87;5.27;;;19.60;43.90;;;;;;5096615;27;20468;-73
2021/03/03 02:55:32;;;;;;;5.70;5.30;;;19.70;44.00;;;;;;5079582;28;20860;-73
2021/03/03 02:57:59;;;;;;;6.37;4.77;;;19.60;43.90;;;;;;5077884;28;21017;-74
2021/03/03 03:00:29;;;;;;;5.87;4.97;;;19.60;43.90;;;;;;5075482;28;20477;-74
2021/03/03 03:03:00;;;;;;;5.83;5.23;;;19.60;43.80;;;;;;5059386;28;20474;-74
2021/03/03 03:05:26;;;;;;;6.67;5.77;;;19.60;43.70;;;;;;5059299;28;20493;-73
2021/03/03 03:07:52;;;;;;;6.40;5.80;;;19.60;43.70;;;;;;5063250;28;20481;-74
2021/03/03 03:10:19;;;;;;;6.70;5.67;;;19.60;43.60;;;;;;5077261;28;20468;-74
2021/03/03 03:12:47;;;;;;;5.97;5.43;;;19.70;43.70;;;;;;5072745;28;20476;-73
2021/03/03 03:15:14;;;;;;;5.73;5.27;;;19.60;43.60;;;;;;5079460;28;20487;-74
2021/03/03 03:17:41;;;;;;;6.23;5.63;;;19.70;43.70;;;;;;5079186;28;20492;-74
2021/03/03 03:20:09;;;;;;;6.17;5.67;;;19.60;43.60;;;;;;5078342;28;20981;-73
2021/03/03 03:22:35;;;;;;;7.33;5.13;;;19.60;43.60;;;;;;5077126;27;20833;-73
2021/03/03 03:25:02;;;;;;;6.50;5.90;;;19.60;43.50;;;;;;5094773;27;20484;-73
2021/03/03 03:27:28;;;;;;;6.37;5.77;;;19.60;43.40;;;;;;5074908;28;20485;-74
2021/03/03 03:29:54;;;;;;;4.90;4.40;;;19.70;43.40;;;;;;5077874;28;20985;-74
2021/03/03 03:32:20;;;;;;;6.20;5.70;;;19.60;43.30;;;;;;5075734;28;20542;-72
2021/03/03 03:34:47;;;;;;;6.47;5.47;;;19.70;43.30;;;;;;5079339;28;20489;-73
2021/03/03 03:37:14;;;;;;;7.10;6.40;;;19.70;43.30;;;;;;5075697;28;20497;-74
2021/03/03 03:39:40;;;;;;;5.73;5.23;;;19.60;43.30;;;;;;5072700;28;20485;-73
2021/03/03 03:42:07;;;;;;;6.00;5.50;;;19.60;43.30;;;;;;5070800;28;20492;-74
2021/03/03 03:44:34;;;;;;;6.17;5.60;;;19.60;43.30;;;;;;5074535;28;20483;-73
2021/03/03 03:47:00;;;;;;;6.27;5.67;;;19.60;43.30;;;;;;5080021;28;20862;-74
2021/03/03 03:49:26;;;;;;;6.60;6.00;;;19.60;43.30;;;;;;5077783;28;20468;-74
2021/03/03 03:51:53;;;;;;;5.93;5.43;;;19.60;43.30;;;;;;5078525;28;20545;-72
2021/03/03 03:54:19;;;;;;;6.73;5.97;;;19.60;43.20;;;;;;5076727;28;20477;-72
2021/03/03 03:56:45;;;;;;;6.10;5.30;;;19.60;43.30;;;;;;5087748;27;20467;-73
2021/03/03 03:59:12;;;;;;;7.37;6.17;;;19.60;43.30;;;;;;5082292;28;20578;-71
2021/03/03 04:01:38;;;;;;;6.80;6.07;;;19.60;43.30;;;;;;5083926;27;20543;-73
2021/03/03 04:04:04;;;;;;;6.60;5.80;;;19.60;43.20;;;;;;5089107;27;20495;-73
2021/03/03 04:06:31;;;;;;;7.70;6.23;;;19.60;43.10;;;;;;5078327;28;20481;-72
2021/03/03 04:08:58;;;;;;;10.90;6.20;;;19.60;42.70;;;;;;5078793;28;20489;-73
2021/03/03 04:11:24;;;;;;;6.40;5.80;;;19.60;42.40;;;;;;5066785;28;20496;-72
2021/03/03 04:13:50;;;;;;;6.37;5.87;;;19.60;42.10;;;;;;5077431;28;20480;-74
2021/03/03 04:16:16;;;;;;;8.20;5.90;;;19.70;42.10;;;;;;5077166;28;20550;-73
2021/03/03 04:18:42;;;;;;;8.73;6.20;;;19.70;41.70;;;;;;5073643;28;20519;-73
2021/03/03 04:21:09;;;;;;;7.93;6.70;;;19.70;41.50;;;;;;5077318;28;20493;-74
2021/03/03 04:23:35;;;;;;;7.27;6.43;;;19.70;41.40;;;;;;5077257;28;20484;-72
2021/03/03 04:26:02;;;;;;;6.80;6.00;;;19.70;41.30;;;;;;5083952;27;20483;-73
2021/03/03 04:28:28;;;;;;;6.50;5.93;;;19.80;41.40;;;;;;5079138;28;20488;-74
2021/03/03 04:30:55;;;;;;;8.80;6.43;;;19.80;41.30;;;;;;5062905;28;20523;-73
2021/03/03 04:33:21;;;;;;;6.37;5.83;;;19.80;41.10;;;;;;5078998;28;20495;-74
2021/03/03 04:35:47;;;;;;;8.90;6.60;;;19.80;41.20;;;;;;5073483;28;20496;-72
2021/03/03 04:38:13;;;;;;;6.30;5.80;;;19.80;41.20;;;;;;5071394;28;20489;-74
2021/03/03 04:40:39;;;;;;;10.40;7.67;;;19.80;41.40;;;;;;5077420;28;20530;-73
2021/03/03 04:43:06;;;;;;;6.80;6.20;;;19.70;41.00;;;;;;5076891;28;20489;-74
2021/03/03 04:45:33;;;;;;;6.53;5.93;;;19.70;41.10;;;;;;5075476;28;20468;-73
2021/03/03 04:47:59;;;;;;;8.60;6.23;;;19.70;41.20;;;;;;5082586;28;20484;-73
2021/03/03 04:50:25;;;;;;;7.27;6.57;;;19.70;41.40;;;;;;5071375;28;20473;-73
2021/03/03 04:52:51;;;;;;;7.67;6.80;;;19.60;41.60;;;;;;5074944;28;20536;-73
2021/03/03 04:55:18;;;;;;;6.60;6.00;;;19.60;41.50;;;;;;5066620;28;20490;-73
2021/03/03 04:57:44;;;;;;;7.63;6.93;;;19.50;41.70;;;;;;5069422;28;20874;-74
2021/03/03 05:00:12;;;;;;;8.10;7.30;;;19.50;42.00;;;;;;5085943;28;20526;-73
2021/03/03 05:02:38;;;;;;;8.03;6.30;;;19.50;41.70;;;;;;5089404;27;20471;-73
2021/03/03 05:05:05;;;;;;;6.90;6.00;;;19.50;41.70;;;;;;5074936;28;20504;-73
2021/03/03 05:07:32;;;;;;;6.23;5.60;;;19.50;41.70;;;;;;5072878;28;20485;-75
2021/03/03 05:09:58;;;;;;;7.70;6.90;;;19.50;41.80;;;;;;5073125;28;20482;-73
2021/03/03 05:12:24;;;;;;;6.63;5.87;;;19.50;41.70;;;;;;5074336;28;20486;-73
2021/03/03 05:14:50;;;;;;;9.13;6.33;;;19.50;41.80;;;;;;5072532;28;20476;-73
2021/03/03 05:17:17;;;;;;;9.40;7.33;;;19.40;41.40;;;;;;5072497;28;20503;-73
2021/03/03 05:19:44;;;;;;;5.60;5.10;;;19.40;41.20;;;;;;5075559;28;20469;-74
2021/03/03 05:22:10;;;;;;;6.93;6.23;;;19.40;41.50;;;;;;5073059;28;21130;-73
2021/03/03 05:24:36;;;;;;;8.10;7.30;;;19.50;41.50;;;;;;5086120;27;20490;-73
2021/03/03 05:27:02;;;;;;;6.83;6.17;;;19.50;41.30;;;;;;5076904;27;20488;-73
2021/03/03 05:29:31;;;;;;;8.67;7.77;;;19.50;41.30;;;;;;5100557;27;20497;-74
2021/03/03 05:31:57;;;;;;;7.50;6.50;;;19.50;41.30;;;;;;5074908;28;20499;-74
2021/03/03 05:34:24;;;;;;;7.43;6.73;;;19.60;41.00;;;;;;5080381;28;20489;-73
2021/03/03 05:36:51;;;;;;;8.47;6.90;;;19.60;40.90;;;;;;5065432;28;20493;-74
2021/03/03 05:39:17;;;;;;;7.87;6.77;;;19.70;40.70;;;;;;5069526;28;20484;-73
2021/03/03 05:41:44;;;;;;;9.67;7.30;;;19.80;40.70;;;;;;5075192;28;20480;-73
2021/03/03 05:44:10;;;;;;;8.87;7.73;;;19.80;41.00;;;;;;5075098;28;20488;-73
2021/03/03 05:46:36;;;;;;;10.40;7.67;;;19.80;41.00;;;;;;5075690;28;20473;-73
2021/03/03 05:49:04;;;;;;;8.27;6.30;;;19.80;41.20;;;;;;5078082;28;20477;-73
2021/03/03 05:51:31;;;;;;;8.83;6.50;;;19.80;40.60;;;;;;5063304;28;20489;-72
2021/03/03 05:53:58;;;;;;;7.97;7.00;;;19.80;40.60;;;;;;5097162;27;20484;-73
2021/03/03 05:56:24;;;;;;;10.23;7.30;;;19.80;40.60;;;;;;5081379;28;20537;-72
2021/03/03 05:58:51;;;;;;;10.23;6.97;;;19.80;40.60;;;;;;5071686;28;20569;-73
2021/03/03 06:01:17;;;;;;;8.30;6.07;;;19.80;40.70;;;;;;5075662;28;21414;-73
2021/03/03 06:03:43;;;;;;;7.30;5.90;;;19.90;40.80;;;;;;5074030;28;20863;-73
2021/03/03 06:06:10;;;;;;;6.03;5.40;;;19.90;40.90;;;;;;5090778;27;20487;-72
2021/03/03 06:08:37;;;;;;;8.67;5.07;;;19.90;40.80;;;;;;5074193;27;20478;-72
2021/03/03 06:11:03;;;;;;;6.57;5.30;;;19.90;40.80;;;;;;5090015;27;20505;-73
2021/03/03 06:13:29;;;;;;;7.93;5.93;;;19.90;40.90;;;;;;5067477;28;20484;-73
2021/03/03 06:15:56;;;;;;;7.67;6.00;;;19.90;40.80;;;;;;5069307;28;20500;-73
2021/03/03 06:18:23;;;;;;;7.60;5.90;;;19.90;40.90;;;;;;5092906;27;20495;-72
2021/03/03 06:20:50;;;;;;;6.00;5.10;;;19.90;41.70;;;;;;5073594;28;21409;-73
2021/03/03 06:23:17;;;;;;;5.20;4.70;;;19.90;41.00;;;;;;5075819;28;20542;-74
2021/03/03 06:25:45;;;;;;;5.83;5.30;;;19.90;41.80;;;;;;5074508;28;20490;-74
2021/03/03 06:28:11;;;;;;;5.50;5.10;;;19.90;41.20;;;;;;5070265;28;20491;-74
2021/03/03 06:30:38;;;;;;;5.77;4.97;;;20.00;41.30;;;;;;5067220;28;21064;-74
2021/03/03 06:33:05;;;;;;;5.80;5.30;;;19.90;41.40;;;;;;5071192;28;20485;-73
2021/03/03 06:35:39;;;;;;;6.27;4.27;;;19.90;41.30;;;;;;5077565;28;20477;-73
2021/03/03 06:38:05;;;;;;;5.50;4.93;;;19.90;41.60;;;;;;5076300;28;20554;-73
2021/03/03 06:40:32;;;;;;;5.20;4.73;;;19.90;41.30;;;;;;5072956;28;20485;-74
2021/03/03 06:43:14;;;;;;;6.17;5.07;;;19.90;41.10;;;;;;5067646;28;20495;-72
2021/03/03 06:45:41;;;;;;;5.17;4.57;;;19.90;40.80;;;;;;5084824;28;20484;-73
2021/03/03 06:48:08;;;;;;;6.30;5.70;;;19.80;41.70;;;;;;5077171;28;20491;-74
2021/03/03 06:50:34;;;;;;;5.53;5.10;;;19.80;40.70;;;;;;5065255;28;21040;-72
2021/03/03 06:53:00;;;;;;;6.10;5.50;;;19.80;40.70;;;;;;5059516;28;20489;-73
2021/03/03 06:55:45;;;;;;;4.70;4.30;;;19.80;40.60;;;;;;5068399;28;20476;-72
2021/03/03 06:58:27;;;;;;;5.97;4.80;;;19.80;40.60;;;;;;5071289;28;21000;-73
2021/03/03 07:00:54;;;;;;;6.90;5.47;;;19.80;40.80;;;;;;5072338;28;20477;-72
2021/03/03 07:03:27;;;;;;;4.40;4.00;;;19.80;40.80;;;;;;5070278;28;20480;-71
2021/03/03 07:05:53;;;;;;;5.13;4.70;;;19.80;41.70;;;;;;5077270;28;20473;-74
2021/03/03 07:08:20;;;;;;;4.77;4.47;;;19.80;40.90;;;;;;5067153;28;20534;-74
2021/03/03 07:10:46;;;;;;;5.37;4.53;;;19.80;41.00;;;;;;5089513;27;20488;-74
2021/03/03 07:13:12;;;;;;;4.90;4.50;;;19.80;41.00;;;;;;5063932;27;20643;-75
2021/03/03 07:15:39;;;;;;;4.33;3.93;;;19.80;41.00;;;;;;5074951;28;20930;-74
2021/03/03 07:18:21;;;;;;;5.53;5.00;;;19.80;41.00;;;;;;5072658;28;20529;-73
2021/03/03 07:20:47;;;;;;;4.83;4.43;;;19.80;41.20;;;;;;5071545;28;20473;-73
2021/03/03 07:23:13;;;;;;;4.87;4.43;;;19.90;41.30;;;;;;5072560;28;20477;-72
2021/03/03 07:25:39;;;;;;;4.43;4.03;;;19.80;41.20;;;;;;5069638;28;20473;-74
2021/03/03 07:28:06;;;;;;;4.60;4.30;;;19.90;41.30;;;;;;5068563;28;20488;-73
2021/03/03 07:30:33;;;;;;;4.03;3.70;;;20.00;41.20;;;;;;5069592;28;21114;-73
2021/03/03 07:33:00;;;;;;;4.43;4.07;;;20.00;41.00;;;;;;5067822;28;20473;-73
2021/03/03 07:35:26;;;;;;;5.27;4.77;;;20.00;41.00;;;;;;5072490;28;20480;-74
2021/03/03 07:37:54;;;;;;;4.60;4.30;;;20.00;41.00;;;;;;5074280;28;20918;-74
2021/03/03 07:40:20;;;;;;;4.77;4.47;;;20.00;41.00;;;;;;5086147;28;20854;-73
2021/03/03 07:42:51;;;;;;;5.13;4.73;;;20.00;41.10;;;;;;5065356;28;20867;-74
2021/03/03 07:45:18;;;;;;;4.80;4.40;;;19.90;41.00;;;;;;5087697;28;20557;-73
2021/03/03 07:47:44;;;;;;;6.57;4.10;;;20.00;41.40;;;;;;5076929;28;20480;-75
2021/03/03 07:50:12;;;;;;;4.40;4.07;;;19.90;41.30;;;;;;5083530;28;20473;-74
2021/03/03 07:52:40;;;;;;;4.90;4.43;;;20.00;41.20;;;;;;5067366;27;20481;-74
2021/03/03 07:55:07;;;;;;;4.67;4.20;;;20.00;41.20;;;;;;5087980;27;20492;-75
2021/03/03 07:57:35;;;;;;;5.00;4.60;;;20.00;41.30;;;;;;5072222;28;20535;-73
2021/03/03 08:00:02;;;;;;;4.73;4.27;;;20.00;41.30;;;;;;5075170;28;20480;-73
2021/03/03 08:02:42;;;;;;;6.67;4.33;;;20.00;41.40;;;;;;5070881;28;20571;-74
2021/03/03 08:05:13;;;;;;;5.90;5.40;;;20.00;41.40;;;;;;5071440;27;20491;-74
2021/03/03 08:07:39;;;;;;;5.10;4.60;;;19.90;41.40;;;;;;5083521;27;20480;-73
2021/03/03 08:10:33;;;;;;;5.17;4.67;;;19.90;41.40;;;;;;5072788;27;20554;-73
2021/03/03 08:13:06;;;;;;;4.40;4.13;;;19.90;41.40;;;;;;5076324;27;20475;-72
2021/03/03 08:15:40;;;;;;;6.47;4.87;;;19.90;41.50;;;;;;5075466;27;20485;-73
2021/03/03 08:18:27;;;;;;;4.50;4.20;;;19.80;41.50;;;;;;5088701;27;20990;-72
2021/03/03 08:20:55;;;;;;;4.60;4.30;;;19.90;41.60;;;;;;5074440;28;20545;-74
2021/03/03 08:23:43;;;;;;;5.03;4.50;;;19.80;41.70;;;;;;5072357;28;20874;-74
2021/03/03 08:26:28;;;;;;;8.23;5.83;;;19.80;41.80;;;;;;5070197;28;20481;-72
2021/03/03 08:28:55;;;;;;;5.53;5.03;;;19.80;41.80;;;;;;5076153;28;20489;-74
2021/03/03 08:31:22;;;;;;;5.80;5.20;;;19.80;41.90;;;;;;5070290;28;21463;-73
2021/03/03 08:33:56;;;;;;;5.73;5.23;;;19.80;41.80;;;;;;5061165;28;20464;-73
2021/03/03 08:37:01;;;;;;;7.70;6.90;;;19.90;41.90;;;;;;5064908;28;21424;-73
2021/03/03 08:39:32;;;;;;;6.20;5.60;;;19.80;41.70;;;;;;5080125;27;20536;-73
2021/03/03 08:41:59;;;;;;;6.57;5.93;;;19.80;42.00;;;;;;5070900;28;20506;-74
2021/03/03 08:44:25;;;;;;;6.03;5.30;;;19.80;42.80;;;;;;5072938;27;20593;-74
2021/03/03 08:46:52;;;;;;;5.07;4.57;;;19.80;42.20;;;;;;5072564;28;20477;-72
2021/03/03 08:49:28;;;;;;;5.97;5.40;;;19.80;42.10;;;;;;5064356;27;20467;-73
2021/03/03 08:52:11;;;;;;;5.87;5.27;;;19.80;42.10;;;;;;5079854;27;21336;-73
2021/03/03 08:54:47;;;;;;;6.70;5.30;;;19.80;42.20;;;;;;5070648;28;20495;-73
2021/03/03 08:57:30;;;;;;;5.23;4.73;;;19.80;42.10;;;;;;5082227;28;20476;-73
2021/03/03 08:59:56;;;;;;;6.87;5.37;;;19.80;42.10;;;;;;5067321;28;20499;-74
2021/03/03 09:02:26;;;;;;;5.17;4.73;;;19.80;42.20;;;;;;5070772;28;22067;-73
2021/03/03 09:04:52;;;;;;;5.67;5.10;;;19.80;42.30;;;;;;5075103;28;20477;-74
2021/03/03 09:07:20;;;;;;;6.30;5.30;;;19.80;42.20;;;;;;5077061;28;20481;-73
2021/03/03 09:09:49;;;;;;;5.00;4.50;;;19.80;42.10;;;;;;5074485;28;20564;-73
2021/03/03 09:12:16;;;;;;;6.10;5.10;;;19.80;42.10;;;;;;5070214;28;20476;-73
2021/03/03 09:14:43;;;;;;;6.63;5.30;;;19.80;42.10;;;;;;5075169;28;20851;-73
2021/03/03 09:17:10;;;;;;;4.83;4.43;;;19.80;42.20;;;;;;5072991;28;20485;-73
2021/03/03 09:19:36;;;;;;;6.80;5.20;;;19.80;42.30;;;;;;5071909;28;20526;-73
2021/03/03 09:22:16;;;;;;;6.50;4.63;;;19.90;42.30;;;;;;5066472;28;20494;-73
2021/03/03 09:24:43;;;;;;;9.43;5.50;;;19.90;42.20;;;;;;5080413;27;20477;-74
2021/03/03 09:27:10;;;;;;;5.50;4.90;;;20.00;42.30;;;;;;5074031;28;20496;-74
2021/03/03 09:29:37;;;;;;;5.60;4.27;;;20.00;42.30;;;;;;5073585;28;20492;-74
2021/03/03 09:32:08;;;;;;;5.43;4.90;;;20.00;43.00;;;;;;5073648;27;20489;-73
2021/03/03 09:34:35;;;;;;;4.30;3.93;;;20.00;42.30;;;;;;5076029;27;20522;-74
2021/03/03 09:37:02;;;;;;;7.60;5.57;;;20.00;42.40;;;;;;5071001;28;20497;-73
2021/03/03 09:39:29;;;;;;;9.03;5.70;;;20.00;42.40;;;;;;5062329;27;21048;-74
2021/03/03 09:41:56;;;;;;;5.67;5.17;;;19.90;42.30;;;;;;5088398;27;20944;-72
2021/03/03 09:44:23;;;;;;;6.03;4.80;;;19.90;42.30;;;;;;5068377;28;20523;-73
2021/03/03 09:46:56;;;;;;;4.47;4.07;;;19.90;42.40;;;;;;5073050;28;20534;-72
2021/03/03 09:49:27;;;;;;;5.40;4.90;;;19.90;42.40;;;;;;5059492;28;20492;-73
2021/03/03 09:51:54;;;;;;;6.10;5.10;;;19.90;42.50;;;;;;5063979;28;20576;-72
2021/03/03 09:54:31;;;;;;;5.30;4.80;;;19.90;42.50;;;;;;5075426;28;20493;-72
2021/03/03 09:57:05;;;;;;;6.80;4.30;;;19.90;42.50;;;;;;5068060;28;21520;-73
2021/03/03 09:59:32;;;;;;;5.50;4.63;;;19.80;42.50;;;;;;5072447;28;20993;-74
2021/03/03 10:01:58;;;;;;;5.53;4.97;;;19.80;42.60;;;;;;5067216;28;20903;-73
2021/03/03 10:04:25;;;;;;;5.07;4.57;;;19.90;42.70;;;;;;5068416;28;20493;-72
2021/03/03 10:06:51;;;;;;;5.17;4.23;;;19.80;42.60;;;;;;5073612;28;21046;-73
2021/03/03 10:09:17;;;;;;;5.07;4.67;;;19.80;42.60;;;;;;5069924;28;20482;-72
2021/03/03 10:11:44;;;;;;;5.43;4.93;;;19.90;42.70;;;;;;5080521;28;20918;-72
2021/03/03 10:14:10;;;;;;;5.77;4.83;;;19.90;42.70;;;;;;5071449;28;20500;-72
2021/03/03 10:16:38;;;;;;;5.47;5.03;;;20.00;42.70;;;;;;5077243;28;20481;-72
2021/03/03 10:19:05;;;;;;;5.47;4.63;;;20.10;42.60;;;;;;5079134;27;20521;-72
2021/03/03 10:21:31;;;;;;;4.97;4.60;;;20.10;42.40;;;;;;5080612;28;20504;-73
2021/03/03 10:23:57;;;;;;;6.13;5.00;;;20.10;42.30;;;;;;5075957;28;20500;-73
2021/03/03 10:26:24;;;;;;;5.83;5.17;;;20.20;42.40;;;;;;5075406;28;20476;-73
2021/03/03 10:28:53;;;;;;;5.50;4.50;;;20.20;42.40;;;;;;5075922;28;20476;-72
2021/03/03 10:31:20;;;;;;;5.10;4.70;;;20.20;42.40;;;;;;5068257;28;20563;-72
2021/03/03 10:33:48;;;;;;;5.40;4.90;;;20.20;42.40;;;;;;5084159;27;20513;-72
2021/03/03 10:36:19;;;;;;;6.23;4.50;;;20.10;42.40;;;;;;5069265;28;20477;-72
2021/03/03 10:38:46;;;;;;;5.23;4.73;;;20.10;42.50;;;;;;5065353;28;20476;-72
2021/03/03 10:41:20;;;;;;;7.80;4.50;;;20.10;42.70;;;;;;5066340;28;20485;-72
2021/03/03 10:43:47;;;;;;;5.70;4.70;;;20.10;42.50;;;;;;5066903;28;20480;-72
2021/03/03 10:46:15;;;;;;;4.60;4.20;;;20.20;42.70;;;;;;5074862;28;20567;-72
2021/03/03 10:48:41;;;;;;;4.63;4.23;;;20.30;42.50;;;;;;5068078;28;20602;-71
2021/03/03 10:51:08;;;;;;;7.00;5.00;;;20.30;42.40;;;;;;5060157;28;20497;-72
2021/03/03 10:53:48;;;;;;;4.03;3.73;;;20.30;42.40;;;;;;5056814;28;20476;-72
2021/03/03 10:56:27;;;;;;;6.43;4.67;;;20.30;42.40;;;;;;5068531;28;20480;-72
2021/03/03 10:58:53;;;;;;;5.03;4.63;;;20.30;42.70;;;;;;5070309;28;20537;-72
2021/03/03 11:01:20;;;;;;;4.20;3.90;;;20.20;42.70;;;;;;5071662;28;20995;-71
2021/03/03 11:03:51;;;;;;;4.90;4.40;;;20.10;42.80;;;;;;5075134;28;20488;-72
2021/03/03 11:06:18;;;;;;;5.37;4.80;;;20.10;42.90;;;;;;5075819;28;20857;-72
2021/03/03 11:08:44;;;;;;;5.80;4.43;;;20.10;43.00;;;;;;5074375;28;20488;-72
2021/03/03 11:11:12;;;;;;;4.80;4.40;;;20.10;43.10;;;;;;5078420;28;20499;-72
2021/03/03 11:13:38;;;;;;;5.60;5.10;;;20.10;43.00;;;;;;5069447;28;20559;-72
2021/03/03 11:16:04;;;;;;;5.27;4.73;;;20.10;42.90;;;;;;5070772;28;21046;-72
2021/03/03 11:18:31;;;;;;;5.40;4.70;;;20.20;42.90;;;;;;5076565;28;20884;-72
2021/03/03 11:20:57;;;;;;;6.60;5.10;;;20.20;42.80;;;;;;5074324;28;22069;-73
2021/03/03 11:23:24;;;;;;;6.67;5.07;;;20.20;42.80;;;;;;5068780;28;20488;-72
2021/03/03 11:25:50;;;;;;;7.83;4.93;;;20.20;42.90;;;;;;5078071;28;21443;-73
2021/03/03 11:28:16;;;;;;;5.23;4.60;;;20.20;42.90;;;;;;5071924;28;20479;-72
2021/03/03 11:30:42;;;;;;;6.40;4.80;;;20.10;43.00;;;;;;5076517;28;21056;-72
2021/03/03 11:33:09;;;;;;;5.57;4.30;;;20.10;43.10;;;;;;5078815;28;20480;-75
2021/03/03 11:35:35;;;;;;;8.90;4.10;;;20.10;44.30;;;;;;5075178;28;20488;-73
2021/03/03 11:38:01;;;;;;;6.33;4.30;;;20.10;43.80;;;;;;5071135;28;20489;-72
2021/03/03 11:40:28;;;;;;;5.27;4.17;;;20.10;43.60;;;;;;5069881;28;20480;-73
2021/03/03 11:42:55;;;;;;;7.73;5.33;;;20.10;43.60;;;;;;5075381;28;20518;-72
2021/03/03 11:45:21;;;;;;;5.87;4.13;;;20.10;43.40;;;;;;5070968;28;20936;-72
2021/03/03 11:47:47;;;;;;;9.67;4.60;;;20.10;43.30;;;;;;5072106;28;20475;-70
2021/03/03 11:50:14;;;;;;;10.53;4.30;;;20.20;43.30;;;;;;5078622;28;20480;-72
2021/03/03 11:52:40;;;;;;;7.50;4.83;;;20.20;43.20;;;;;;5075510;27;20533;-71
2021/03/03 11:55:07;;;;;;;5.00;4.30;;;20.20;43.10;;;;;;5076432;28;20472;-72
2021/03/03 11:57:35;;;;;;;7.40;5.10;;;20.10;43.20;;;;;;5076808;28;20492;-71
2021/03/03 12:00:01;;;;;;;6.23;4.83;;;20.10;43.20;;;;;;5073379;28;20477;-72
2021/03/03 12:02:27;;;;;;;5.33;4.60;;;20.10;43.30;;;;;;5079022;27;20484;-72
2021/03/03 12:04:53;;;;;;;10.00;4.23;;;20.10;43.40;;;;;;5076836;28;20496;-72
2021/03/03 12:07:19;;;;;;;5.90;3.97;;;20.10;43.40;;;;;;5078243;28;20477;-72
2021/03/03 12:09:46;;;;;;;5.27;4.73;;;20.10;43.40;;;;;;5078996;28;20481;-72
2021/03/03 12:12:12;;;;;;;4.67;4.27;;;20.10;43.50;;;;;;5072104;28;20501;-72
2021/03/03 12:14:40;;;;;;;4.73;4.30;;;20.10;43.50;;;;;;5077238;28;20476;-72
2021/03/03 12:17:07;;;;;;;7.80;4.73;;;20.00;43.50;;;;;;5066946;28;20593;-73
2021/03/03 12:19:33;;;;;;;5.27;4.40;;;20.00;43.50;;;;;;5089932;27;20531;-72
2021/03/03 12:21:59;;;;;;;3.90;3.70;;;20.00;43.60;;;;;;5074884;28;21521;-72
2021/03/03 12:24:26;;;;;;;8.17;4.97;;;20.00;43.60;;;;;;5071675;28;20493;-72
2021/03/03 12:26:53;;;;;;;5.70;4.20;;;20.00;43.70;;;;;;5076122;28;20639;-72
2021/03/03 12:29:19;;;;;;;5.27;4.73;;;19.90;43.60;;;;;;5069412;28;20491;-71
2021/03/03 12:31:46;;;;;;;6.50;4.07;;;19.90;43.60;;;;;;5081285;27;20473;-72
2021/03/03 12:34:13;;;;;;;4.23;3.87;;;20.00;43.80;;;;;;5078873;28;20496;-71
2021/03/03 12:36:39;;;;;;;3.73;3.43;;;20.00;43.80;;;;;;5070130;28;20509;-72
2021/03/03 12:39:05;;;;;;;4.60;4.20;;;20.00;43.70;;;;;;5070116;28;20839;-71
2021/03/03 12:41:32;;;;;;;4.70;4.30;;;20.10;43.80;;;;;;5080399;27;20489;-72
2021/03/03 12:43:58;;;;;;;4.87;4.07;;;20.10;43.70;;;;;;5070078;28;20542;-72
2021/03/03 12:46:24;;;;;;;11.90;4.37;;;20.10;43.70;;;;;;5094316;27;20471;-72
2021/03/03 12:48:51;;;;;;;6.73;4.10;;;20.10;43.60;;;;;;5075093;28;20487;-71